createdAt,value
2022-11-03T00:01:43.008Z,7.90
2022-11-03T00:04:12.834Z,7.90
2022-11-03T00:06:43.704Z,7.80
2022-11-03T00:09:13.514Z,7.70
2022-11-03T00:11:43.612Z,7.60
2022-11-03T00:14:12.530Z,7.70
2022-11-03T00:16:41.677Z,7.70
2022-11-03T00:19:11.264Z,7.60
2022-11-03T00:21:40.988Z,7.50
2022-11-03T00:24:09.782Z,7.40
2022-11-03T00:26:38.448Z,7.30
2022-11-03T00:29:09.202Z,7.30
2022-11-03T00:31:39.203Z,7.20
2022-11-03T00:34:08.196Z,7.10
2022-11-03T00:36:37.862Z,7.10
2022-11-03T00:39:07.880Z,7.00
2022-11-03T00:41:36.254Z,6.90
2022-11-03T00:44:04.836Z,6.80
2022-11-03T00:46:35.477Z,6.70
2022-11-03T00:49:04.716Z,6.60
2022-11-03T00:51:34.490Z,6.60
2022-11-03T00:54:05.072Z,6.50
2022-11-03T00:56:36.572Z,6.50
2022-11-03T00:59:06.613Z,6.50
2022-11-03T01:01:42.193Z,6.60
2022-11-03T01:04:31.534Z,6.70
2022-11-03T01:07:00.822Z,6.70
2022-11-03T01:09:30.816Z,6.90
2022-11-03T01:12:02.397Z,7.00
2022-11-03T01:14:33.166Z,7.10
2022-11-03T01:17:01.836Z,7.10
2022-11-03T01:19:29.921Z,7.10
2022-11-03T01:21:58.304Z,6.90
2022-11-03T01:24:26.577Z,6.80
2022-11-03T01:26:54.793Z,6.80
2022-11-03T01:29:24.491Z,6.90
2022-11-03T01:31:52.571Z,6.90
2022-11-03T01:34:21.828Z,6.80
2022-11-03T01:36:50.522Z,6.80
2022-11-03T01:39:20.105Z,6.80
2022-11-03T01:41:50.411Z,6.70
2022-11-03T01:44:29.620Z,6.60
2022-11-03T01:47:04.213Z,6.60
2022-11-03T01:49:36.832Z,6.80
2022-11-03T01:52:10.451Z,6.90
2022-11-03T01:54:40.274Z,7.00
2022-11-03T01:57:13.904Z,7.00
2022-11-03T01:59:44.926Z,7.00
2022-11-03T02:02:13.646Z,6.90
2022-11-03T02:04:42.912Z,6.90
2022-11-03T02:07:17.834Z,6.90
2022-11-03T02:09:45.941Z,7.00
2022-11-03T02:12:17.537Z,6.90
2022-11-03T02:14:55.704Z,6.90
2022-11-03T02:17:25.305Z,6.90
2022-11-03T02:19:58.311Z,6.80
2022-11-03T02:22:50.869Z,6.80
2022-11-03T02:25:34.147Z,6.70
2022-11-03T02:28:04.115Z,6.60
2022-11-03T02:30:38.719Z,6.50
2022-11-03T02:33:14.315Z,6.50
2022-11-03T02:35:48.959Z,6.40
2022-11-03T02:38:21.097Z,6.50
2022-11-03T02:40:55.144Z,6.40
2022-11-03T02:43:25.702Z,6.40
2022-11-03T02:45:56.281Z,6.30
2022-11-03T02:48:24.381Z,6.30
2022-11-03T02:50:52.716Z,6.30
2022-11-03T02:53:21.219Z,6.30
2022-11-03T02:56:00.144Z,6.20
2022-11-03T02:58:35.401Z,6.20
2022-11-03T03:01:12.063Z,6.20
2022-11-03T03:03:43.893Z,6.10
2022-11-03T03:06:17.593Z,6.00
2022-11-03T03:08:50.038Z,5.80
2022-11-03T03:11:37.521Z,5.80
2022-11-03T03:14:10.800Z,5.80
2022-11-03T03:16:44.476Z,5.90
2022-11-03T03:19:24.367Z,6.00
2022-11-03T03:21:55.696Z,6.20
2022-11-03T03:24:38.437Z,6.40
2022-11-03T03:27:13.339Z,6.50
2022-11-03T03:29:47.452Z,6.80
2022-11-03T03:32:20.019Z,7.00
2022-11-03T03:34:50.864Z,7.10
2022-11-03T03:37:20.511Z,7.10
2022-11-03T03:39:53.679Z,7.10
2022-11-03T03:42:26.111Z,7.10
2022-11-03T03:44:55.837Z,7.00
2022-11-03T03:47:28.318Z,7.00
2022-11-03T03:49:56.778Z,7.10
2022-11-03T03:52:25.628Z,7.00
2022-11-03T03:54:53.839Z,6.90
2022-11-03T03:57:25.655Z,6.90
2022-11-03T03:59:53.730Z,6.80
2022-11-03T04:02:21.898Z,6.80
2022-11-03T04:04:50.708Z,6.70
2022-11-03T04:07:40.850Z,6.60
2022-11-03T04:10:12.433Z,6.60
2022-11-03T04:13:00.889Z,6.60
2022-11-03T04:15:46.900Z,6.50
2022-11-03T04:18:32.539Z,6.50
2022-11-03T04:21:18.108Z,6.60
2022-11-03T04:23:46.242Z,6.60
2022-11-03T04:26:16.538Z,6.60
2022-11-03T04:28:46.912Z,6.50
2022-11-03T04:31:16.503Z,6.40
2022-11-03T04:33:45.593Z,6.40
2022-11-03T04:36:22.035Z,6.20
2022-11-03T04:38:50.643Z,6.20
2022-11-03T04:41:21.262Z,6.10
2022-11-03T04:43:52.495Z,6.00
2022-11-03T04:46:25.977Z,6.00
2022-11-03T04:48:55.193Z,6.00
2022-11-03T04:51:26.360Z,6.00
2022-11-03T04:53:59.829Z,5.90
2022-11-03T04:56:28.008Z,5.90
2022-11-03T04:58:59.890Z,5.90
2022-11-03T05:01:29.566Z,5.90
2022-11-03T05:03:57.744Z,5.70
2022-11-03T05:06:29.732Z,5.60
2022-11-03T05:09:01.806Z,5.60
2022-11-03T05:11:35.633Z,5.50
2022-11-03T05:14:15.406Z,5.50
2022-11-03T05:16:44.327Z,5.60
2022-11-03T05:19:17.300Z,5.50
2022-11-03T05:21:46.041Z,5.40
2022-11-03T05:26:49.464Z,5.20
2022-11-03T05:29:22.308Z,5.10
2022-11-03T05:31:52.339Z,5.00
2022-11-03T05:34:36.185Z,5.00
2022-11-03T05:37:26.862Z,4.80
2022-11-03T05:39:58.530Z,4.80
2022-11-03T05:42:33.975Z,4.80
2022-11-03T05:45:05.885Z,4.80
2022-11-03T05:47:38.253Z,4.80
2022-11-03T05:50:17.764Z,4.90
2022-11-03T05:52:48.187Z,5.00
2022-11-03T05:55:34.836Z,5.10
2022-11-03T05:58:13.604Z,5.10
2022-11-03T06:00:48.417Z,4.90
2022-11-03T06:03:22.208Z,4.80
2022-11-03T06:05:50.451Z,4.70
2022-11-03T06:08:21.981Z,4.70
2022-11-03T06:10:51.656Z,4.60
2022-11-03T06:13:22.365Z,4.60
2022-11-03T06:15:57.538Z,4.60
2022-11-03T06:18:32.211Z,4.60
2022-11-03T06:21:07.871Z,4.60
2022-11-03T06:23:37.731Z,4.50
2022-11-03T06:26:15.471Z,4.40
2022-11-03T06:28:43.754Z,4.40
2022-11-03T06:31:23.071Z,4.30
2022-11-03T06:33:52.495Z,4.30
2022-11-03T06:36:22.207Z,4.30
2022-11-03T06:38:55.685Z,4.30
2022-11-03T06:41:26.699Z,4.40
2022-11-03T06:43:56.980Z,4.40
2022-11-03T06:46:28.010Z,4.40
2022-11-03T06:48:59.717Z,4.30
2022-11-03T06:51:29.391Z,4.30
2022-11-03T06:54:01.030Z,4.30
2022-11-03T06:56:32.708Z,4.20
2022-11-03T06:59:02.296Z,4.20
2022-11-03T07:01:34.872Z,4.20
2022-11-03T07:04:04.726Z,4.20
2022-11-03T07:06:37.365Z,4.40
2022-11-03T07:09:10.215Z,4.60
2022-11-03T07:11:44.542Z,4.70
2022-11-03T07:14:15.734Z,4.70
2022-11-03T07:16:47.459Z,4.80
2022-11-03T07:19:19.982Z,4.90
2022-11-03T07:21:50.952Z,5.00
2022-11-03T07:24:23.321Z,5.10
2022-11-03T07:26:57.797Z,5.10
2022-11-03T07:29:29.571Z,5.20
2022-11-03T07:32:01.025Z,5.20
2022-11-03T07:34:33.727Z,5.20
2022-11-03T07:37:02.399Z,5.30
2022-11-03T07:39:35.920Z,5.40
2022-11-03T07:42:04.904Z,5.40
2022-11-03T07:44:35.556Z,5.50
2022-11-03T07:47:05.367Z,5.70
2022-11-03T07:49:33.461Z,5.80
2022-11-03T07:52:02.013Z,5.90
2022-11-03T07:54:32.120Z,5.90
2022-11-03T07:57:01.984Z,5.90
2022-11-03T07:59:34.269Z,5.90
2022-11-03T08:02:13.794Z,5.90
2022-11-03T08:04:42.505Z,6.10
2022-11-03T08:07:10.571Z,6.10
2022-11-03T08:09:39.108Z,6.30
2022-11-03T08:12:08.171Z,6.30
2022-11-03T08:14:37.960Z,6.30
2022-11-03T08:17:07.715Z,6.40
2022-11-03T08:19:36.001Z,6.50
2022-11-03T08:22:04.123Z,6.50
2022-11-03T08:24:32.464Z,6.50
2022-11-03T08:27:00.569Z,6.60
2022-11-03T08:29:28.777Z,6.70
2022-11-03T08:31:57.106Z,6.70
2022-11-03T08:34:26.541Z,6.70
2022-11-03T08:36:54.665Z,6.80
2022-11-03T08:39:22.897Z,7.20
2022-11-03T08:41:50.992Z,7.40
2022-11-03T08:44:19.101Z,7.50
2022-11-03T08:46:47.509Z,7.50
2022-11-03T08:49:15.571Z,7.70
2022-11-03T08:51:45.234Z,8.00
2022-11-03T08:54:13.891Z,8.40
2022-11-03T08:56:42.025Z,9.00
2022-11-03T08:59:10.113Z,9.90
2022-11-03T09:01:38.387Z,10.60
2022-11-03T09:04:06.696Z,11.20
2022-11-03T09:06:34.849Z,12.00
2022-11-03T09:11:52.688Z,13.50
2022-11-03T09:14:20.983Z,14.30
2022-11-03T09:16:49.106Z,14.90
2022-11-03T09:19:17.674Z,15.40
2022-11-03T09:21:45.899Z,15.80
2022-11-03T09:24:15.331Z,16.30
2022-11-03T09:26:44.195Z,16.50
2022-11-03T09:29:12.273Z,16.30
2022-11-03T09:31:40.423Z,16.70
2022-11-03T09:34:08.493Z,16.80
2022-11-03T09:36:36.607Z,17.10
2022-11-03T09:39:04.888Z,17.80
2022-11-03T09:41:56.072Z,18.90
2022-11-03T09:44:23.593Z,19.50
2022-11-03T09:46:57.728Z,18.90
2022-11-03T09:49:26.987Z,18.10
2022-11-03T09:51:56.189Z,18.30
2022-11-03T09:54:24.395Z,17.90
2022-11-03T09:56:53.923Z,18.20
2022-11-03T09:59:24.177Z,18.60
2022-11-03T10:01:54.055Z,18.60
2022-11-03T10:04:27.347Z,17.80
2022-11-03T10:06:56.200Z,17.00
2022-11-03T10:09:25.478Z,16.70
2022-11-03T10:11:56.495Z,16.20
2022-11-03T10:14:25.217Z,15.40
2022-11-03T10:16:57.706Z,14.60
2022-11-03T10:19:26.159Z,13.90
2022-11-03T10:21:54.321Z,13.40
2022-11-03T10:24:22.734Z,12.70
2022-11-03T10:26:52.367Z,12.60
2022-11-03T10:29:24.142Z,12.40
2022-11-03T10:31:53.676Z,12.00
2022-11-03T10:34:36.675Z,11.50
2022-11-03T10:37:20.915Z,11.30
2022-11-03T10:39:51.756Z,11.20
2022-11-03T10:42:22.409Z,10.90
2022-11-03T10:44:55.113Z,10.90
2022-11-03T10:47:33.825Z,10.80
2022-11-03T10:50:13.681Z,10.80
2022-11-03T10:52:41.831Z,10.80
2022-11-03T10:55:11.271Z,10.90
2022-11-03T10:57:39.554Z,10.90
2022-11-03T11:00:16.605Z,10.80
2022-11-03T11:02:46.672Z,10.80
2022-11-03T11:05:18.367Z,10.70
2022-11-03T11:07:47.050Z,10.70
2022-11-03T11:10:18.174Z,10.50
2022-11-03T11:13:25.846Z,10.50
2022-11-03T11:15:56.882Z,10.50
2022-11-03T11:19:11.528Z,10.60
2022-11-03T11:22:03.596Z,10.60
2022-11-03T11:25:02.807Z,10.80
2022-11-03T11:27:59.119Z,10.90
2022-11-03T11:30:59.383Z,11.00
2022-11-03T11:33:28.812Z,11.00
2022-11-03T11:36:21.420Z,10.90
2022-11-03T11:39:13.769Z,10.90
2022-11-03T11:42:07.623Z,10.80
2022-11-03T11:44:57.622Z,10.70
2022-11-03T11:47:33.398Z,10.70
2022-11-03T11:50:28.000Z,10.70
2022-11-03T11:53:02.050Z,10.70
2022-11-03T11:55:33.396Z,10.70
2022-11-03T11:58:04.217Z,10.70
2022-11-03T12:00:34.569Z,10.70
2022-11-03T12:03:07.114Z,10.80
2022-11-03T12:05:36.951Z,10.90
2022-11-03T12:08:19.236Z,10.90
2022-11-03T12:10:54.026Z,10.90
2022-11-03T12:13:47.833Z,10.90
2022-11-03T12:16:29.265Z,10.90
2022-11-03T12:18:59.525Z,10.90
2022-11-03T12:21:47.983Z,10.90
2022-11-03T12:24:57.720Z,10.90
2022-11-03T12:27:43.370Z,10.80
2022-11-03T12:30:17.656Z,10.90
2022-11-03T12:32:46.207Z,10.90
2022-11-03T12:35:15.756Z,10.80
2022-11-03T12:37:43.849Z,10.80
2022-11-03T12:40:14.780Z,10.80
2022-11-03T12:42:43.010Z,10.80
2022-11-03T12:45:13.812Z,10.80
2022-11-03T12:47:42.195Z,10.70
2022-11-03T12:50:10.981Z,10.70
2022-11-03T12:52:40.536Z,10.70
2022-11-03T12:55:09.686Z,10.60
2022-11-03T12:57:37.773Z,10.60
2022-11-03T13:00:07.042Z,10.50
2022-11-03T13:02:35.965Z,10.50
2022-11-03T13:05:04.702Z,10.50
2022-11-03T13:07:34.968Z,10.40
2022-11-03T13:10:05.104Z,10.40
2022-11-03T13:12:33.400Z,10.40
2022-11-03T13:15:03.117Z,10.40
2022-11-03T13:17:40.418Z,10.40
2022-11-03T13:20:19.590Z,10.30
2022-11-03T13:22:48.198Z,10.30
2022-11-03T13:25:18.876Z,10.30
2022-11-03T13:27:47.036Z,10.30
2022-11-03T13:30:15.731Z,10.20
2022-11-03T13:32:43.813Z,10.30
2022-11-03T13:35:13.890Z,10.20
2022-11-03T13:37:42.919Z,10.20
2022-11-03T13:40:29.251Z,10.20
2022-11-03T13:43:02.506Z,10.20
2022-11-03T13:45:30.621Z,10.20
2022-11-03T13:50:50.945Z,10.20
2022-11-03T13:56:11.442Z,10.10
2022-11-03T14:01:33.540Z,10.10
2022-11-03T14:06:49.916Z,10.10
2022-11-03T14:09:19.075Z,10.00
2022-11-03T14:12:04.571Z,10.00
2022-11-03T14:14:34.245Z,10.00
2022-11-03T14:17:02.944Z,10.00
2022-11-03T14:19:38.134Z,10.00
2022-11-03T14:22:11.404Z,10.00
2022-11-03T14:24:39.484Z,9.90
2022-11-03T14:27:07.566Z,9.90
2022-11-03T14:29:37.132Z,9.80
2022-11-03T14:32:05.506Z,9.80
2022-11-03T14:34:33.627Z,9.80
2022-11-03T14:37:02.452Z,9.80
2022-11-03T14:39:30.573Z,9.70
2022-11-03T14:42:03.768Z,9.70
2022-11-03T14:44:32.245Z,9.70
2022-11-03T14:47:02.761Z,9.70
2022-11-03T14:49:31.498Z,9.70
2022-11-03T14:52:01.704Z,9.70
2022-11-03T14:54:30.933Z,9.70
2022-11-03T14:56:59.298Z,9.60
2022-11-03T14:59:27.926Z,9.60
2022-11-03T15:01:56.963Z,9.60
2022-11-03T15:04:27.257Z,9.60
2022-11-03T15:06:55.833Z,9.60
2022-11-03T15:09:24.025Z,9.50
2022-11-03T15:11:52.253Z,9.50
2022-11-03T15:14:20.487Z,9.50
2022-11-03T15:16:48.599Z,9.50
2022-11-03T15:19:17.329Z,9.50
2022-11-03T15:21:46.884Z,9.50
2022-11-03T15:27:03.390Z,9.40
2022-11-03T15:29:31.483Z,9.40
2022-11-03T15:31:59.556Z,9.30
2022-11-03T15:34:27.859Z,9.30
2022-11-03T15:36:57.335Z,9.30
2022-11-03T15:39:25.478Z,9.40
2022-11-03T15:41:54.024Z,9.40
2022-11-03T15:44:22.076Z,9.40
2022-11-03T15:46:50.167Z,9.40
2022-11-03T15:49:18.645Z,9.40
2022-11-03T15:51:46.723Z,9.40
2022-11-03T15:54:16.301Z,9.50
2022-11-03T15:56:44.364Z,9.50
2022-11-03T15:59:12.411Z,9.50
2022-11-03T16:01:40.660Z,9.50
2022-11-03T16:04:09.020Z,9.50
2022-11-03T16:09:27.026Z,9.60
2022-11-03T16:11:55.115Z,9.60
2022-11-03T16:14:23.259Z,9.60
2022-11-03T16:16:51.804Z,9.70
2022-11-03T16:19:19.907Z,9.70
2022-11-03T16:21:48.041Z,9.80
2022-11-03T16:24:16.307Z,9.80
2022-11-03T16:26:45.895Z,9.80
2022-11-03T16:29:13.985Z,9.80
2022-11-03T16:31:42.125Z,9.80
2022-11-03T16:34:10.307Z,9.90
2022-11-03T16:36:38.400Z,9.90
2022-11-03T16:39:06.743Z,9.90
2022-11-03T16:41:34.854Z,9.90
2022-11-03T16:44:04.584Z,9.90
2022-11-03T16:46:32.849Z,9.80
2022-11-03T16:49:01.057Z,9.80
2022-11-03T16:51:30.007Z,9.80
2022-11-03T16:53:59.743Z,9.90
2022-11-03T16:56:28.388Z,9.90
2022-11-03T16:58:56.503Z,9.90
2022-11-03T17:01:26.460Z,9.80
2022-11-03T17:03:54.772Z,9.90
2022-11-03T17:06:22.835Z,9.90
2022-11-03T17:08:53.426Z,10.00
2022-11-03T17:11:36.062Z,9.90
2022-11-03T17:14:06.355Z,10.00
2022-11-03T17:16:35.941Z,9.90
2022-11-03T17:19:04.279Z,9.90
2022-11-03T17:21:33.233Z,10.00
2022-11-03T17:24:01.342Z,10.00
2022-11-03T17:26:40.365Z,10.00
2022-11-03T17:29:16.023Z,10.00
2022-11-03T17:31:45.971Z,10.00
2022-11-03T17:34:14.284Z,10.00
2022-11-03T17:36:42.399Z,10.00
2022-11-03T17:39:14.880Z,10.00
2022-11-03T17:41:43.204Z,10.00
2022-11-03T17:44:12.927Z,10.00
2022-11-03T17:46:41.373Z,10.00
2022-11-03T17:49:10.838Z,9.90
2022-11-03T17:51:43.216Z,9.90
2022-11-03T17:54:17.102Z,9.90
2022-11-03T17:56:45.904Z,9.90
2022-11-03T17:59:16.618Z,9.90
2022-11-03T18:01:45.431Z,9.90
2022-11-03T18:04:16.424Z,9.80
2022-11-03T18:06:45.529Z,9.80
2022-11-03T18:09:13.796Z,9.80
2022-11-03T18:12:01.387Z,9.70
2022-11-03T18:14:30.560Z,9.60
2022-11-03T18:17:00.034Z,9.50
2022-11-03T18:19:29.707Z,9.40
2022-11-03T18:21:59.427Z,9.50
2022-11-03T18:24:28.755Z,9.50
2022-11-03T18:26:57.235Z,9.40
2022-11-03T18:29:25.334Z,9.50
2022-11-03T18:31:53.477Z,9.40
2022-11-03T18:34:25.636Z,9.50
2022-11-03T18:36:55.362Z,9.50
2022-11-03T18:39:25.847Z,9.50
2022-11-03T18:41:53.934Z,9.50
2022-11-03T18:44:25.112Z,9.40
2022-11-03T18:46:55.425Z,9.40
2022-11-03T18:49:24.931Z,9.40
2022-11-03T18:52:02.379Z,9.50
2022-11-03T18:54:32.376Z,9.50
2022-11-03T18:57:01.416Z,9.40
2022-11-03T18:59:32.108Z,9.40
2022-11-03T19:02:00.589Z,9.40
2022-11-03T19:04:29.375Z,9.40
2022-11-03T19:06:58.906Z,9.40
2022-11-03T19:09:28.160Z,9.40
2022-11-03T19:11:58.789Z,9.40
2022-11-03T19:14:31.403Z,9.40
2022-11-03T19:19:48.900Z,9.40
2022-11-03T19:22:20.874Z,9.30
2022-11-03T19:24:49.163Z,9.40
2022-11-03T19:27:21.492Z,9.40
2022-11-03T19:29:50.339Z,9.40
2022-11-03T19:32:24.203Z,9.50
2022-11-03T19:34:57.727Z,9.50
2022-11-03T19:37:32.459Z,9.50
2022-11-03T19:40:05.948Z,9.50
2022-11-03T19:42:36.923Z,9.60
2022-11-03T19:45:07.490Z,9.60
2022-11-03T19:47:47.777Z,9.60
2022-11-03T19:50:24.911Z,9.60
2022-11-03T19:52:56.129Z,9.70
2022-11-03T19:55:30.398Z,9.60
2022-11-03T19:58:01.967Z,9.60
2022-11-03T20:00:31.589Z,9.60
2022-11-03T20:02:59.735Z,9.50
2022-11-03T20:05:27.870Z,9.60
2022-11-03T20:08:00.822Z,9.60
2022-11-03T20:10:33.225Z,9.60
2022-11-03T20:13:04.692Z,9.60
2022-11-03T20:15:33.340Z,9.70
2022-11-03T20:18:01.462Z,9.70
2022-11-03T20:20:35.241Z,9.60
2022-11-03T20:23:07.022Z,9.60
2022-11-03T20:25:37.098Z,9.70
2022-11-03T20:28:17.273Z,9.60
2022-11-03T20:30:45.624Z,9.80
2022-11-03T20:33:16.721Z,9.90
2022-11-03T20:35:47.024Z,9.90
2022-11-03T20:38:20.175Z,10.00
2022-11-03T20:40:51.423Z,10.00
2022-11-03T20:43:26.396Z,10.00
2022-11-03T20:45:54.871Z,9.90
2022-11-03T20:48:23.284Z,9.90
2022-11-03T20:50:51.859Z,9.90
2022-11-03T20:53:23.198Z,10.00
2022-11-03T20:55:52.360Z,10.10
2022-11-03T20:58:20.652Z,10.10
2022-11-03T21:00:50.118Z,10.10
2022-11-03T21:03:37.760Z,10.00
2022-11-03T21:06:10.835Z,10.10
2022-11-03T21:08:40.709Z,10.10
2022-11-03T21:11:28.274Z,10.10
2022-11-03T21:13:58.617Z,10.10
2022-11-03T21:16:45.968Z,10.10
2022-11-03T21:19:34.525Z,10.20
2022-11-03T21:22:02.953Z,10.20
2022-11-03T21:24:32.946Z,10.10
2022-11-03T21:27:01.040Z,10.20
2022-11-03T21:32:18.351Z,10.30
2022-11-03T21:34:46.458Z,10.40
2022-11-03T21:37:16.142Z,10.30
2022-11-03T21:39:45.723Z,10.30
2022-11-03T21:42:33.201Z,10.40
2022-11-03T21:45:02.327Z,10.50
2022-11-03T21:47:30.432Z,10.50
2022-11-03T21:49:57.562Z,10.50
2022-11-03T21:52:32.684Z,10.40
2022-11-03T21:55:03.224Z,10.40
2022-11-03T21:57:32.039Z,10.40
2022-11-03T22:00:00.117Z,10.40
2022-11-03T22:02:30.467Z,10.40
2022-11-03T22:04:59.070Z,10.40
2022-11-03T22:07:27.170Z,10.40
2022-11-03T22:09:55.264Z,10.40
2022-11-03T22:12:25.329Z,10.40
2022-11-03T22:15:10.678Z,10.40
2022-11-03T22:17:39.200Z,10.50
2022-11-03T22:20:25.704Z,10.50
2022-11-03T22:23:11.344Z,10.50
2022-11-03T22:25:59.632Z,10.60
2022-11-03T22:28:29.496Z,10.50
2022-11-03T22:31:15.117Z,10.50
2022-11-03T22:33:57.440Z,10.60
2022-11-03T22:36:25.620Z,10.50
2022-11-03T22:39:07.944Z,10.60
2022-11-03T22:41:53.951Z,10.50
2022-11-03T22:44:41.263Z,10.60
2022-11-03T22:47:09.833Z,10.60
2022-11-03T22:49:41.922Z,10.60
2022-11-03T22:52:11.592Z,10.60
2022-11-03T22:54:39.029Z,10.60
2022-11-03T22:57:07.742Z,10.60
2022-11-03T22:59:37.215Z,10.50
2022-11-03T23:02:05.889Z,10.60
2022-11-03T23:04:34.185Z,10.50
2022-11-03T23:07:02.381Z,10.50
2022-11-03T23:09:30.979Z,10.50
2022-11-03T23:11:59.064Z,10.50
2022-11-03T23:14:47.730Z,10.50
2022-11-03T23:17:17.647Z,10.40
2022-11-03T23:20:03.049Z,10.30
2022-11-03T23:22:31.180Z,10.30
2022-11-03T23:25:01.072Z,10.20
2022-11-03T23:27:29.709Z,10.20
2022-11-03T23:29:58.248Z,10.10
2022-11-03T23:32:27.748Z,10.00
2022-11-03T23:34:55.796Z,10.00
2022-11-03T23:37:23.974Z,9.90
2022-11-03T23:39:52.044Z,9.90
2022-11-03T23:42:20.192Z,9.80
2022-11-03T23:45:05.585Z,9.70
2022-11-03T23:47:52.631Z,9.60
2022-11-03T23:50:20.893Z,9.50
2022-11-03T23:52:48.983Z,9.50
2022-11-03T23:55:17.342Z,9.50
2022-11-03T23:58:17.600Z,9.50
